sensor_id;sensor_type;location;lat;lon;timestamp;P1;durP1;ratioP1;P2;durP2;ratioP2
34549;SDS011;66080;52.078;5.626;2023-09-30T00:00:04;9.63;;;4.60;;
34549;SDS011;66080;52.078;5.626;2023-09-30T00:02:33;9.90;;;4.75;;
34549;SDS011;66080;52.078;5.626;2023-09-30T00:04:59;8.80;;;3.78;;
34549;SDS011;66080;52.078;5.626;2023-09-30T00:07:25;17.27;;;4.50;;
34549;SDS011;66080;52.078;5.626;2023-09-30T00:09:51;22.42;;;5.47;;
34549;SDS011;66080;52.078;5.626;2023-09-30T00:12:17;12.85;;;4.70;;
34549;SDS011;66080;52.078;5.626;2023-09-30T00:14:43;15.48;;;6.18;;
34549;SDS011;66080;52.078;5.626;2023-09-30T00:17:09;15.07;;;5.38;;
34549;SDS011;66080;52.078;5.626;2023-09-30T00:19:35;10.45;;;5.10;;
34549;SDS011;66080;52.078;5.626;2023-09-30T00:22:02;12.23;;;5.45;;
34549;SDS011;66080;52.078;5.626;2023-09-30T00:24:28;17.50;;;4.85;;
34549;SDS011;66080;52.078;5.626;2023-09-30T00:26:55;13.43;;;5.70;;
34549;SDS011;66080;52.078;5.626;2023-09-30T00:29:21;13.27;;;6.43;;
34549;SDS011;66080;52.078;5.626;2023-09-30T00:31:47;10.55;;;5.95;;
34549;SDS011;66080;52.078;5.626;2023-09-30T00:34:13;19.05;;;6.38;;
34549;SDS011;66080;52.078;5.626;2023-09-30T00:36:39;15.18;;;5.93;;
34549;SDS011;66080;52.078;5.626;2023-09-30T00:39:06;13.40;;;6.18;;
34549;SDS011;66080;52.078;5.626;2023-09-30T00:41:33;10.90;;;5.78;;
34549;SDS011;66080;52.078;5.626;2023-09-30T00:43:59;10.45;;;5.40;;
34549;SDS011;66080;52.078;5.626;2023-09-30T00:46:31;10.80;;;5.10;;
34549;SDS011;66080;52.078;5.626;2023-09-30T00:48:58;28.05;;;6.25;;
34549;SDS011;66080;52.078;5.626;2023-09-30T00:51:25;16.55;;;6.03;;
34549;SDS011;66080;52.078;5.626;2023-09-30T00:53:51;12.10;;;5.07;;
34549;SDS011;66080;52.078;5.626;2023-09-30T00:56:18;8.48;;;4.57;;
34549;SDS011;66080;52.078;5.626;2023-09-30T00:58:45;13.80;;;7.45;;
34549;SDS011;66080;52.078;5.626;2023-09-30T01:01:11;21.17;;;9.13;;
34549;SDS011;66080;52.078;5.626;2023-09-30T01:03:37;13.48;;;8.20;;
34549;SDS011;66080;52.078;5.626;2023-09-30T01:06:04;20.42;;;6.90;;
34549;SDS011;66080;52.078;5.626;2023-09-30T01:08:31;15.98;;;6.90;;
34549;SDS011;66080;52.078;5.626;2023-09-30T01:10:57;16.00;;;6.72;;
34549;SDS011;66080;52.078;5.626;2023-09-30T01:13:31;13.93;;;6.15;;
34549;SDS011;66080;52.078;5.626;2023-09-30T01:15:57;9.73;;;5.32;;
34549;SDS011;66080;52.078;5.626;2023-09-30T01:18:23;10.45;;;5.95;;
34549;SDS011;66080;52.078;5.626;2023-09-30T01:20:50;12.20;;;6.60;;
34549;SDS011;66080;52.078;5.626;2023-09-30T01:23:17;13.50;;;5.05;;
34549;SDS011;66080;52.078;5.626;2023-09-30T01:25:44;12.10;;;5.07;;
34549;SDS011;66080;52.078;5.626;2023-09-30T01:28:10;14.73;;;5.57;;
34549;SDS011;66080;52.078;5.626;2023-09-30T01:30:36;15.00;;;4.95;;
34549;SDS011;66080;52.078;5.626;2023-09-30T01:33:02;14.15;;;5.30;;
34549;SDS011;66080;52.078;5.626;2023-09-30T01:35:28;17.52;;;7.28;;
34549;SDS011;66080;52.078;5.626;2023-09-30T01:37:54;14.10;;;5.50;;
34549;SDS011;66080;52.078;5.626;2023-09-30T01:40:20;11.55;;;5.07;;
34549;SDS011;66080;52.078;5.626;2023-09-30T01:42:46;15.60;;;6.43;;
34549;SDS011;66080;52.078;5.626;2023-09-30T01:45:12;20.60;;;6.38;;
34549;SDS011;66080;52.078;5.626;2023-09-30T01:47:38;18.60;;;7.32;;
34549;SDS011;66080;52.078;5.626;2023-09-30T01:50:04;13.13;;;5.20;;
34549;SDS011;66080;52.078;5.626;2023-09-30T01:52:30;13.32;;;6.03;;
34549;SDS011;66080;52.078;5.626;2023-09-30T01:54:56;11.23;;;6.32;;
34549;SDS011;66080;52.078;5.626;2023-09-30T01:57:22;14.82;;;5.28;;
34549;SDS011;66080;52.078;5.626;2023-09-30T01:59:48;14.25;;;5.65;;
34549;SDS011;66080;52.078;5.626;2023-09-30T02:02:14;13.50;;;5.78;;
34549;SDS011;66080;52.078;5.626;2023-09-30T02:04:40;10.45;;;5.88;;
34549;SDS011;66080;52.078;5.626;2023-09-30T02:07:06;13.93;;;6.65;;
34549;SDS011;66080;52.078;5.626;2023-09-30T02:09:32;11.65;;;6.00;;
34549;SDS011;66080;52.078;5.626;2023-09-30T02:11:59;19.67;;;7.13;;
34549;SDS011;66080;52.078;5.626;2023-09-30T02:14:25;16.80;;;6.28;;
34549;SDS011;66080;52.078;5.626;2023-09-30T02:16:51;14.43;;;6.13;;
34549;SDS011;66080;52.078;5.626;2023-09-30T02:19:17;11.05;;;6.03;;
34549;SDS011;66080;52.078;5.626;2023-09-30T02:21:44;16.15;;;5.85;;
34549;SDS011;66080;52.078;5.626;2023-09-30T02:24:10;11.35;;;6.55;;
34549;SDS011;66080;52.078;5.626;2023-09-30T02:26:36;12.55;;;6.10;;
34549;SDS011;66080;52.078;5.626;2023-09-30T02:29:04;13.73;;;5.60;;
34549;SDS011;66080;52.078;5.626;2023-09-30T02:31:32;9.38;;;5.28;;
34549;SDS011;66080;52.078;5.626;2023-09-30T02:33:58;10.60;;;5.03;;
34549;SDS011;66080;52.078;5.626;2023-09-30T02:36:24;14.75;;;6.40;;
34549;SDS011;66080;52.078;5.626;2023-09-30T02:38:52;18.75;;;5.88;;
34549;SDS011;66080;52.078;5.626;2023-09-30T02:41:18;11.90;;;6.22;;
34549;SDS011;66080;52.078;5.626;2023-09-30T02:43:44;13.82;;;6.15;;
34549;SDS011;66080;52.078;5.626;2023-09-30T02:46:11;11.10;;;6.38;;
34549;SDS011;66080;52.078;5.626;2023-09-30T02:48:37;15.15;;;6.72;;
34549;SDS011;66080;52.078;5.626;2023-09-30T02:51:03;12.93;;;6.13;;
34549;SDS011;66080;52.078;5.626;2023-09-30T02:53:29;14.15;;;6.70;;
34549;SDS011;66080;52.078;5.626;2023-09-30T02:55:55;15.00;;;6.45;;
34549;SDS011;66080;52.078;5.626;2023-09-30T02:58:24;13.20;;;6.38;;
34549;SDS011;66080;52.078;5.626;2023-09-30T03:00:50;18.75;;;6.35;;
34549;SDS011;66080;52.078;5.626;2023-09-30T03:03:16;10.57;;;7.28;;
34549;SDS011;66080;52.078;5.626;2023-09-30T03:05:42;12.93;;;5.80;;
34549;SDS011;66080;52.078;5.626;2023-09-30T03:08:10;15.75;;;7.22;;
34549;SDS011;66080;52.078;5.626;2023-09-30T03:10:36;14.07;;;7.93;;
34549;SDS011;66080;52.078;5.626;2023-09-30T03:13:05;13.25;;;6.95;;
34549;SDS011;66080;52.078;5.626;2023-09-30T03:15:33;10.13;;;8.10;;
34549;SDS011;66080;52.078;5.626;2023-09-30T03:17:59;14.02;;;7.43;;
34549;SDS011;66080;52.078;5.626;2023-09-30T03:20:25;12.43;;;6.97;;
34549;SDS011;66080;52.078;5.626;2023-09-30T03:22:51;16.60;;;7.78;;
34549;SDS011;66080;52.078;5.626;2023-09-30T03:25:18;13.90;;;7.40;;
34549;SDS011;66080;52.078;5.626;2023-09-30T03:27:44;12.27;;;8.43;;
34549;SDS011;66080;52.078;5.626;2023-09-30T03:30:14;13.82;;;8.15;;
34549;SDS011;66080;52.078;5.626;2023-09-30T03:32:40;16.58;;;7.32;;
34549;SDS011;66080;52.078;5.626;2023-09-30T03:35:07;13.18;;;6.97;;
34549;SDS011;66080;52.078;5.626;2023-09-30T03:37:36;19.67;;;7.32;;
34549;SDS011;66080;52.078;5.626;2023-09-30T03:40:02;17.73;;;9.05;;
34549;SDS011;66080;52.078;5.626;2023-09-30T03:42:39;14.98;;;8.38;;
34549;SDS011;66080;52.078;5.626;2023-09-30T03:45:05;17.58;;;7.28;;
34549;SDS011;66080;52.078;5.626;2023-09-30T03:47:37;16.60;;;8.65;;
34549;SDS011;66080;52.078;5.626;2023-09-30T03:50:04;18.02;;;8.25;;
34549;SDS011;66080;52.078;5.626;2023-09-30T03:52:30;14.48;;;8.07;;
34549;SDS011;66080;52.078;5.626;2023-09-30T03:54:58;14.23;;;8.32;;
34549;SDS011;66080;52.078;5.626;2023-09-30T03:57:24;19.98;;;8.98;;
34549;SDS011;66080;52.078;5.626;2023-09-30T03:59:50;15.32;;;10.15;;
34549;SDS011;66080;52.078;5.626;2023-09-30T04:02:17;13.77;;;8.48;;
34549;SDS011;66080;52.078;5.626;2023-09-30T04:04:44;16.20;;;8.70;;
34549;SDS011;66080;52.078;5.626;2023-09-30T04:07:11;18.38;;;8.77;;
34549;SDS011;66080;52.078;5.626;2023-09-30T04:09:37;13.75;;;8.50;;
34549;SDS011;66080;52.078;5.626;2023-09-30T04:12:03;14.30;;;8.98;;
34549;SDS011;66080;52.078;5.626;2023-09-30T04:14:29;13.07;;;7.75;;
34549;SDS011;66080;52.078;5.626;2023-09-30T04:16:55;17.70;;;8.45;;
34549;SDS011;66080;52.078;5.626;2023-09-30T04:19:21;15.63;;;8.77;;
34549;SDS011;66080;52.078;5.626;2023-09-30T04:21:47;16.33;;;8.75;;
34549;SDS011;66080;52.078;5.626;2023-09-30T04:24:13;13.88;;;8.15;;
34549;SDS011;66080;52.078;5.626;2023-09-30T04:26:39;19.27;;;9.75;;
34549;SDS011;66080;52.078;5.626;2023-09-30T04:29:06;13.55;;;10.20;;
34549;SDS011;66080;52.078;5.626;2023-09-30T04:31:35;15.52;;;9.15;;
34549;SDS011;66080;52.078;5.626;2023-09-30T04:34:02;15.45;;;9.02;;
34549;SDS011;66080;52.078;5.626;2023-09-30T04:36:29;12.23;;;8.35;;
34549;SDS011;66080;52.078;5.626;2023-09-30T04:38:55;16.23;;;8.25;;
34549;SDS011;66080;52.078;5.626;2023-09-30T04:41:21;16.55;;;10.52;;
34549;SDS011;66080;52.078;5.626;2023-09-30T04:43:49;9.68;;;8.68;;
34549;SDS011;66080;52.078;5.626;2023-09-30T04:46:15;19.98;;;9.35;;
34549;SDS011;66080;52.078;5.626;2023-09-30T04:48:45;24.73;;;9.65;;
34549;SDS011;66080;52.078;5.626;2023-09-30T04:51:13;13.45;;;8.93;;
34549;SDS011;66080;52.078;5.626;2023-09-30T04:53:42;16.45;;;8.80;;
34549;SDS011;66080;52.078;5.626;2023-09-30T04:56:10;17.40;;;8.55;;
34549;SDS011;66080;52.078;5.626;2023-09-30T04:58:36;18.75;;;9.00;;
34549;SDS011;66080;52.078;5.626;2023-09-30T05:01:01;14.20;;;9.85;;
34549;SDS011;66080;52.078;5.626;2023-09-30T05:03:27;19.17;;;8.90;;
34549;SDS011;66080;52.078;5.626;2023-09-30T05:05:53;18.83;;;9.00;;
34549;SDS011;66080;52.078;5.626;2023-09-30T05:08:23;14.52;;;9.00;;
34549;SDS011;66080;52.078;5.626;2023-09-30T05:10:50;16.80;;;9.18;;
34549;SDS011;66080;52.078;5.626;2023-09-30T05:13:16;15.65;;;11.40;;
34549;SDS011;66080;52.078;5.626;2023-09-30T05:15:42;17.27;;;9.77;;
34549;SDS011;66080;52.078;5.626;2023-09-30T05:18:08;14.23;;;9.52;;
34549;SDS011;66080;52.078;5.626;2023-09-30T05:20:34;18.85;;;8.95;;
34549;SDS011;66080;52.078;5.626;2023-09-30T05:23:01;17.17;;;9.63;;
34549;SDS011;66080;52.078;5.626;2023-09-30T05:25:28;22.02;;;10.90;;
34549;SDS011;66080;52.078;5.626;2023-09-30T05:27:54;17.13;;;8.50;;
34549;SDS011;66080;52.078;5.626;2023-09-30T05:30:20;14.70;;;10.07;;
34549;SDS011;66080;52.078;5.626;2023-09-30T05:32:46;17.80;;;9.50;;
34549;SDS011;66080;52.078;5.626;2023-09-30T05:35:12;18.08;;;11.27;;
34549;SDS011;66080;52.078;5.626;2023-09-30T05:37:41;17.05;;;10.90;;
34549;SDS011;66080;52.078;5.626;2023-09-30T05:40:08;16.13;;;10.10;;
34549;SDS011;66080;52.078;5.626;2023-09-30T05:42:46;17.30;;;9.95;;
34549;SDS011;66080;52.078;5.626;2023-09-30T05:45:13;17.65;;;10.63;;
34549;SDS011;66080;52.078;5.626;2023-09-30T05:47:40;16.98;;;9.55;;
34549;SDS011;66080;52.078;5.626;2023-09-30T05:50:07;19.92;;;10.93;;
34549;SDS011;66080;52.078;5.626;2023-09-30T05:52:33;14.15;;;10.20;;
34549;SDS011;66080;52.078;5.626;2023-09-30T05:54:59;17.33;;;11.00;;
34549;SDS011;66080;52.078;5.626;2023-09-30T05:57:25;18.33;;;11.30;;
34549;SDS011;66080;52.078;5.626;2023-09-30T05:59:51;19.40;;;10.55;;
34549;SDS011;66080;52.078;5.626;2023-09-30T06:02:17;19.30;;;10.15;;
34549;SDS011;66080;52.078;5.626;2023-09-30T06:04:44;19.52;;;10.82;;
34549;SDS011;66080;52.078;5.626;2023-09-30T06:07:11;15.63;;;10.40;;
34549;SDS011;66080;52.078;5.626;2023-09-30T06:09:37;18.40;;;10.75;;
34549;SDS011;66080;52.078;5.626;2023-09-30T06:12:03;15.88;;;10.27;;
34549;SDS011;66080;52.078;5.626;2023-09-30T06:14:31;21.05;;;11.55;;
34549;SDS011;66080;52.078;5.626;2023-09-30T06:16:57;20.45;;;11.48;;
34549;SDS011;66080;52.078;5.626;2023-09-30T06:19:23;21.75;;;13.25;;
34549;SDS011;66080;52.078;5.626;2023-09-30T06:21:50;21.70;;;11.70;;
34549;SDS011;66080;52.078;5.626;2023-09-30T06:24:16;26.65;;;11.90;;
34549;SDS011;66080;52.078;5.626;2023-09-30T06:26:44;21.60;;;11.50;;
34549;SDS011;66080;52.078;5.626;2023-09-30T06:29:13;23.48;;;12.52;;
34549;SDS011;66080;52.078;5.626;2023-09-30T06:31:39;20.15;;;12.40;;
34549;SDS011;66080;52.078;5.626;2023-09-30T06:34:05;25.42;;;13.00;;
34549;SDS011;66080;52.078;5.626;2023-09-30T06:36:31;20.92;;;12.85;;
34549;SDS011;66080;52.078;5.626;2023-09-30T06:38:57;29.02;;;13.45;;
34549;SDS011;66080;52.078;5.626;2023-09-30T06:41:24;19.20;;;13.40;;
34549;SDS011;66080;52.078;5.626;2023-09-30T06:43:50;28.15;;;13.57;;
34549;SDS011;66080;52.078;5.626;2023-09-30T06:46:17;26.10;;;13.07;;
34549;SDS011;66080;52.078;5.626;2023-09-30T06:48:43;27.92;;;13.80;;
34549;SDS011;66080;52.078;5.626;2023-09-30T06:51:12;25.73;;;14.02;;
34549;SDS011;66080;52.078;5.626;2023-09-30T06:53:39;19.88;;;13.10;;
34549;SDS011;66080;52.078;5.626;2023-09-30T06:56:05;30.92;;;15.45;;
34549;SDS011;66080;52.078;5.626;2023-09-30T06:58:31;25.60;;;15.23;;
34549;SDS011;66080;52.078;5.626;2023-09-30T07:00:58;33.08;;;16.05;;
34549;SDS011;66080;52.078;5.626;2023-09-30T07:03:24;22.63;;;15.65;;
34549;SDS011;66080;52.078;5.626;2023-09-30T07:05:50;30.55;;;15.90;;
34549;SDS011;66080;52.078;5.626;2023-09-30T07:08:16;25.48;;;16.25;;
34549;SDS011;66080;52.078;5.626;2023-09-30T07:10:43;31.02;;;17.95;;
34549;SDS011;66080;52.078;5.626;2023-09-30T07:13:11;37.83;;;18.65;;
34549;SDS011;66080;52.078;5.626;2023-09-30T07:15:37;35.63;;;18.25;;
34549;SDS011;66080;52.078;5.626;2023-09-30T07:18:03;36.67;;;19.60;;
34549;SDS011;66080;52.078;5.626;2023-09-30T07:20:29;34.03;;;20.98;;
34549;SDS011;66080;52.078;5.626;2023-09-30T07:22:58;29.77;;;19.27;;
34549;SDS011;66080;52.078;5.626;2023-09-30T07:25:24;36.08;;;20.75;;
34549;SDS011;66080;52.078;5.626;2023-09-30T07:27:50;31.80;;;21.85;;
34549;SDS011;66080;52.078;5.626;2023-09-30T07:30:16;43.50;;;20.67;;
34549;SDS011;66080;52.078;5.626;2023-09-30T07:32:42;39.45;;;20.60;;
34549;SDS011;66080;52.078;5.626;2023-09-30T07:35:09;42.50;;;20.80;;
34549;SDS011;66080;52.078;5.626;2023-09-30T07:37:35;30.42;;;18.92;;
34549;SDS011;66080;52.078;5.626;2023-09-30T07:40:01;36.25;;;20.90;;
34549;SDS011;66080;52.078;5.626;2023-09-30T07:42:28;38.83;;;20.27;;
34549;SDS011;66080;52.078;5.626;2023-09-30T07:44:55;48.58;;;19.90;;
34549;SDS011;66080;52.078;5.626;2023-09-30T07:47:21;41.92;;;20.83;;
34549;SDS011;66080;52.078;5.626;2023-09-30T07:49:46;34.17;;;19.88;;
34549;SDS011;66080;52.078;5.626;2023-09-30T07:52:12;33.80;;;20.23;;
34549;SDS011;66080;52.078;5.626;2023-09-30T07:54:38;31.63;;;20.55;;
34549;SDS011;66080;52.078;5.626;2023-09-30T07:57:04;32.47;;;19.63;;
34549;SDS011;66080;52.078;5.626;2023-09-30T07:59:30;36.20;;;20.30;;
34549;SDS011;66080;52.078;5.626;2023-09-30T08:01:58;39.03;;;21.13;;
34549;SDS011;66080;52.078;5.626;2023-09-30T08:04:24;31.52;;;20.35;;
34549;SDS011;66080;52.078;5.626;2023-09-30T08:06:50;37.17;;;20.38;;
34549;SDS011;66080;52.078;5.626;2023-09-30T08:09:16;32.53;;;19.75;;
34549;SDS011;66080;52.078;5.626;2023-09-30T08:11:43;32.15;;;19.60;;
34549;SDS011;66080;52.078;5.626;2023-09-30T08:14:09;30.30;;;18.77;;
34549;SDS011;66080;52.078;5.626;2023-09-30T08:16:36;33.03;;;18.45;;
34549;SDS011;66080;52.078;5.626;2023-09-30T08:19:02;30.17;;;18.27;;
34549;SDS011;66080;52.078;5.626;2023-09-30T08:21:28;25.75;;;16.02;;
34549;SDS011;66080;52.078;5.626;2023-09-30T08:23:55;30.23;;;18.17;;
34549;SDS011;66080;52.078;5.626;2023-09-30T08:26:21;33.10;;;18.27;;
34549;SDS011;66080;52.078;5.626;2023-09-30T08:28:47;35.70;;;17.70;;
34549;SDS011;66080;52.078;5.626;2023-09-30T08:31:13;27.13;;;17.20;;
34549;SDS011;66080;52.078;5.626;2023-09-30T08:33:39;34.25;;;17.92;;
34549;SDS011;66080;52.078;5.626;2023-09-30T08:36:08;32.60;;;17.23;;
34549;SDS011;66080;52.078;5.626;2023-09-30T08:38:39;29.23;;;16.55;;
34549;SDS011;66080;52.078;5.626;2023-09-30T08:41:05;26.75;;;15.95;;
34549;SDS011;66080;52.078;5.626;2023-09-30T08:43:38;23.50;;;14.88;;
34549;SDS011;66080;52.078;5.626;2023-09-30T08:46:04;31.58;;;16.10;;
34549;SDS011;66080;52.078;5.626;2023-09-30T08:48:34;31.23;;;14.00;;
34549;SDS011;66080;52.078;5.626;2023-09-30T08:51:01;27.40;;;15.45;;
34549;SDS011;66080;52.078;5.626;2023-09-30T08:53:28;22.67;;;14.52;;
34549;SDS011;66080;52.078;5.626;2023-09-30T08:55:54;24.50;;;14.38;;
34549;SDS011;66080;52.078;5.626;2023-09-30T08:58:24;29.83;;;15.27;;
34549;SDS011;66080;52.078;5.626;2023-09-30T09:00:50;23.77;;;15.30;;
34549;SDS011;66080;52.078;5.626;2023-09-30T09:03:17;27.42;;;16.40;;
34549;SDS011;66080;52.078;5.626;2023-09-30T09:05:43;29.98;;;14.35;;
34549;SDS011;66080;52.078;5.626;2023-09-30T09:08:09;26.00;;;13.48;;
34549;SDS011;66080;52.078;5.626;2023-09-30T09:10:35;21.45;;;14.07;;
34549;SDS011;66080;52.078;5.626;2023-09-30T09:13:01;21.40;;;14.45;;
34549;SDS011;66080;52.078;5.626;2023-09-30T09:15:27;21.60;;;15.18;;
34549;SDS011;66080;52.078;5.626;2023-09-30T09:17:54;21.17;;;14.68;;
34549;SDS011;66080;52.078;5.626;2023-09-30T09:20:21;24.02;;;14.27;;
34549;SDS011;66080;52.078;5.626;2023-09-30T09:22:48;25.08;;;14.80;;
34549;SDS011;66080;52.078;5.626;2023-09-30T09:25:16;21.35;;;14.43;;
34549;SDS011;66080;52.078;5.626;2023-09-30T09:27:41;27.90;;;15.02;;
34549;SDS011;66080;52.078;5.626;2023-09-30T09:32:51;29.95;;;14.82;;
34549;SDS011;66080;52.078;5.626;2023-09-30T09:35:19;24.02;;;14.65;;
34549;SDS011;66080;52.078;5.626;2023-09-30T09:40:26;26.20;;;15.18;;
34549;SDS011;66080;52.078;5.626;2023-09-30T09:42:52;20.90;;;12.82;;
34549;SDS011;66080;52.078;5.626;2023-09-30T09:45:19;24.42;;;15.20;;
34549;SDS011;66080;52.078;5.626;2023-09-30T09:47:47;24.38;;;15.23;;
34549;SDS011;66080;52.078;5.626;2023-09-30T09:50:14;24.90;;;13.15;;
34549;SDS011;66080;52.078;5.626;2023-09-30T09:52:41;23.98;;;13.23;;
34549;SDS011;66080;52.078;5.626;2023-09-30T09:55:10;25.00;;;13.77;;
34549;SDS011;66080;52.078;5.626;2023-09-30T09:57:37;21.70;;;12.18;;
34549;SDS011;66080;52.078;5.626;2023-09-30T10:00:03;28.33;;;12.13;;
34549;SDS011;66080;52.078;5.626;2023-09-30T10:02:36;26.15;;;12.23;;
34549;SDS011;66080;52.078;5.626;2023-09-30T10:05:04;19.48;;;12.77;;
34549;SDS011;66080;52.078;5.626;2023-09-30T10:07:33;26.48;;;13.75;;
34549;SDS011;66080;52.078;5.626;2023-09-30T10:10:01;19.67;;;11.80;;
34549;SDS011;66080;52.078;5.626;2023-09-30T10:12:31;22.92;;;10.70;;
34549;SDS011;66080;52.078;5.626;2023-09-30T10:15:11;22.05;;;11.88;;
34549;SDS011;66080;52.078;5.626;2023-09-30T10:18:00;26.50;;;12.38;;
34549;SDS011;66080;52.078;5.626;2023-09-30T10:20:28;26.15;;;10.00;;
34549;SDS011;66080;52.078;5.626;2023-09-30T10:25:39;16.17;;;7.80;;
34549;SDS011;66080;52.078;5.626;2023-09-30T10:39:00;10.75;;;5.80;;
34549;SDS011;66080;52.078;5.626;2023-09-30T10:46:50;17.60;;;6.47;;
34549;SDS011;66080;52.078;5.626;2023-09-30T10:49:16;11.68;;;4.38;;
34549;SDS011;66080;52.078;5.626;2023-09-30T10:51:43;16.48;;;5.53;;
34549;SDS011;66080;52.078;5.626;2023-09-30T10:54:10;10.77;;;4.78;;
34549;SDS011;66080;52.078;5.626;2023-09-30T10:56:38;12.27;;;3.58;;
34549;SDS011;66080;52.078;5.626;2023-09-30T10:59:04;15.52;;;4.75;;
34549;SDS011;66080;52.078;5.626;2023-09-30T11:01:33;13.35;;;4.63;;
34549;SDS011;66080;52.078;5.626;2023-09-30T11:04:01;15.83;;;5.80;;
34549;SDS011;66080;52.078;5.626;2023-09-30T11:06:31;16.00;;;4.53;;
34549;SDS011;66080;52.078;5.626;2023-09-30T11:08:58;9.68;;;3.80;;
34549;SDS011;66080;52.078;5.626;2023-09-30T11:11:34;9.23;;;5.22;;
34549;SDS011;66080;52.078;5.626;2023-09-30T11:14:00;10.43;;;4.43;;
34549;SDS011;66080;52.078;5.626;2023-09-30T11:16:26;16.92;;;4.13;;
34549;SDS011;66080;52.078;5.626;2023-09-30T11:18:53;11.27;;;3.17;;
34549;SDS011;66080;52.078;5.626;2023-09-30T11:21:19;9.65;;;3.50;;
34549;SDS011;66080;52.078;5.626;2023-09-30T11:23:45;8.13;;;3.78;;
34549;SDS011;66080;52.078;5.626;2023-09-30T11:26:12;7.47;;;3.20;;
34549;SDS011;66080;52.078;5.626;2023-09-30T11:28:43;11.50;;;4.13;;
34549;SDS011;66080;52.078;5.626;2023-09-30T11:31:12;7.50;;;3.05;;
34549;SDS011;66080;52.078;5.626;2023-09-30T11:33:49;5.97;;;3.03;;
34549;SDS011;66080;52.078;5.626;2023-09-30T11:36:17;7.05;;;3.05;;
34549;SDS011;66080;52.078;5.626;2023-09-30T11:38:44;8.20;;;3.45;;
34549;SDS011;66080;52.078;5.626;2023-09-30T11:41:14;8.90;;;2.95;;
34549;SDS011;66080;52.078;5.626;2023-09-30T11:43:58;5.32;;;2.05;;
34549;SDS011;66080;52.078;5.626;2023-09-30T11:46:25;9.50;;;3.55;;
34549;SDS011;66080;52.078;5.626;2023-09-30T11:49:02;7.00;;;2.40;;
34549;SDS011;66080;52.078;5.626;2023-09-30T11:51:42;7.95;;;3.03;;
34549;SDS011;66080;52.078;5.626;2023-09-30T11:54:11;11.63;;;3.67;;
34549;SDS011;66080;52.078;5.626;2023-09-30T11:56:37;9.00;;;3.45;;
34549;SDS011;66080;52.078;5.626;2023-09-30T11:59:03;10.55;;;3.85;;
34549;SDS011;66080;52.078;5.626;2023-09-30T12:01:29;7.88;;;2.90;;
34549;SDS011;66080;52.078;5.626;2023-09-30T12:03:57;7.72;;;2.60;;
34549;SDS011;66080;52.078;5.626;2023-09-30T12:06:23;14.77;;;3.08;;
34549;SDS011;66080;52.078;5.626;2023-09-30T12:08:49;9.63;;;3.42;;
34549;SDS011;66080;52.078;5.626;2023-09-30T12:11:16;7.93;;;2.72;;
34549;SDS011;66080;52.078;5.626;2023-09-30T12:13:42;14.10;;;3.50;;
34549;SDS011;66080;52.078;5.626;2023-09-30T12:16:09;12.52;;;2.85;;
34549;SDS011;66080;52.078;5.626;2023-09-30T12:18:36;12.73;;;3.10;;
34549;SDS011;66080;52.078;5.626;2023-09-30T12:21:02;8.20;;;2.90;;
34549;SDS011;66080;52.078;5.626;2023-09-30T12:23:31;12.10;;;3.20;;
34549;SDS011;66080;52.078;5.626;2023-09-30T12:25:57;9.50;;;3.65;;
34549;SDS011;66080;52.078;5.626;2023-09-30T12:28:23;11.40;;;3.78;;
34549;SDS011;66080;52.078;5.626;2023-09-30T12:30:49;11.45;;;3.42;;
34549;SDS011;66080;52.078;5.626;2023-09-30T12:33:15;8.82;;;3.20;;
34549;SDS011;66080;52.078;5.626;2023-09-30T12:35:41;11.20;;;3.33;;
34549;SDS011;66080;52.078;5.626;2023-09-30T12:38:07;11.00;;;4.03;;
34549;SDS011;66080;52.078;5.626;2023-09-30T12:40:33;10.75;;;3.65;;
34549;SDS011;66080;52.078;5.626;2023-09-30T12:42:59;10.82;;;3.30;;
34549;SDS011;66080;52.078;5.626;2023-09-30T12:45:25;6.13;;;3.10;;
34549;SDS011;66080;52.078;5.626;2023-09-30T12:47:51;10.93;;;2.50;;
34549;SDS011;66080;52.078;5.626;2023-09-30T12:50:19;10.63;;;3.47;;
34549;SDS011;66080;52.078;5.626;2023-09-30T12:52:44;9.88;;;3.08;;
34549;SDS011;66080;52.078;5.626;2023-09-30T12:55:10;12.45;;;3.92;;
34549;SDS011;66080;52.078;5.626;2023-09-30T12:57:36;11.90;;;3.50;;
34549;SDS011;66080;52.078;5.626;2023-09-30T13:00:02;11.18;;;3.65;;
34549;SDS011;66080;52.078;5.626;2023-09-30T13:02:29;8.02;;;3.08;;
34549;SDS011;66080;52.078;5.626;2023-09-30T13:04:55;12.63;;;4.75;;
34549;SDS011;66080;52.078;5.626;2023-09-30T13:07:21;13.93;;;5.05;;
34549;SDS011;66080;52.078;5.626;2023-09-30T13:09:47;8.98;;;3.92;;
34549;SDS011;66080;52.078;5.626;2023-09-30T13:12:13;10.32;;;3.35;;
34549;SDS011;66080;52.078;5.626;2023-09-30T13:14:39;12.20;;;3.55;;
34549;SDS011;66080;52.078;5.626;2023-09-30T13:17:05;12.57;;;3.83;;
34549;SDS011;66080;52.078;5.626;2023-09-30T13:19:31;9.60;;;4.18;;
34549;SDS011;66080;52.078;5.626;2023-09-30T13:21:58;11.40;;;3.33;;
34549;SDS011;66080;52.078;5.626;2023-09-30T13:24:24;14.07;;;3.83;;
34549;SDS011;66080;52.078;5.626;2023-09-30T13:26:51;8.98;;;3.40;;
34549;SDS011;66080;52.078;5.626;2023-09-30T13:29:18;7.45;;;3.10;;
34549;SDS011;66080;52.078;5.626;2023-09-30T13:31:44;15.23;;;3.90;;
34549;SDS011;66080;52.078;5.626;2023-09-30T13:34:10;14.07;;;4.03;;
34549;SDS011;66080;52.078;5.626;2023-09-30T13:36:39;11.73;;;3.17;;
34549;SDS011;66080;52.078;5.626;2023-09-30T13:39:05;8.93;;;3.25;;
34549;SDS011;66080;52.078;5.626;2023-09-30T13:41:34;11.25;;;3.17;;
34549;SDS011;66080;52.078;5.626;2023-09-30T13:44:01;15.10;;;3.70;;
34549;SDS011;66080;52.078;5.626;2023-09-30T13:46:27;7.45;;;2.95;;
34549;SDS011;66080;52.078;5.626;2023-09-30T13:48:53;9.25;;;3.97;;
34549;SDS011;66080;52.078;5.626;2023-09-30T13:51:19;7.90;;;2.70;;
34549;SDS011;66080;52.078;5.626;2023-09-30T13:53:45;8.15;;;3.25;;
34549;SDS011;66080;52.078;5.626;2023-09-30T13:56:11;10.85;;;3.50;;
34549;SDS011;66080;52.078;5.626;2023-09-30T13:58:37;6.75;;;2.90;;
34549;SDS011;66080;52.078;5.626;2023-09-30T14:01:07;7.13;;;3.22;;
34549;SDS011;66080;52.078;5.626;2023-09-30T14:03:33;9.23;;;3.25;;
34549;SDS011;66080;52.078;5.626;2023-09-30T14:05:59;8.82;;;3.20;;
34549;SDS011;66080;52.078;5.626;2023-09-30T14:08:25;10.80;;;3.63;;
34549;SDS011;66080;52.078;5.626;2023-09-30T14:10:51;11.85;;;4.43;;
34549;SDS011;66080;52.078;5.626;2023-09-30T14:13:17;10.95;;;4.20;;
34549;SDS011;66080;52.078;5.626;2023-09-30T14:15:43;11.95;;;4.78;;
34549;SDS011;66080;52.078;5.626;2023-09-30T14:18:09;14.00;;;5.38;;
34549;SDS011;66080;52.078;5.626;2023-09-30T14:20:35;13.27;;;4.65;;
34549;SDS011;66080;52.078;5.626;2023-09-30T14:23:01;13.43;;;5.05;;
34549;SDS011;66080;52.078;5.626;2023-09-30T14:25:28;10.00;;;4.57;;
34549;SDS011;66080;52.078;5.626;2023-09-30T14:27:54;15.82;;;4.80;;
34549;SDS011;66080;52.078;5.626;2023-09-30T14:30:21;11.00;;;5.15;;
34549;SDS011;66080;52.078;5.626;2023-09-30T14:32:47;24.52;;;5.65;;
34549;SDS011;66080;52.078;5.626;2023-09-30T14:35:13;13.68;;;4.65;;
34549;SDS011;66080;52.078;5.626;2023-09-30T14:37:40;10.98;;;5.40;;
34549;SDS011;66080;52.078;5.626;2023-09-30T14:40:06;13.85;;;5.47;;
34549;SDS011;66080;52.078;5.626;2023-09-30T14:42:36;12.85;;;4.80;;
34549;SDS011;66080;52.078;5.626;2023-09-30T14:45:02;12.38;;;5.22;;
34549;SDS011;66080;52.078;5.626;2023-09-30T14:47:28;13.82;;;5.90;;
34549;SDS011;66080;52.078;5.626;2023-09-30T14:49:54;14.65;;;5.57;;
34549;SDS011;66080;52.078;5.626;2023-09-30T14:52:20;14.80;;;5.47;;